Terminal Aerodrome Forecast
Issued by NWS

Home | Current Version | Previous Version | Text Only | Print | Product List | Glossary On
Versions: 1 2 3 4 5 6 7 8 9 10 11 12 13 14 15
000
FTUS42 KFFC 292300
TAFPDK
TAF
KPDK 292320Z 3000/3024 VRB03KT P6SM SCT080 SCT250
     FM301600 18007KT P6SM SCT035 BKN050 PROB30 3017/3023 6SM TSRA
      BKN045CB=

USA.gov is the U.S. government's official web portal to all federal, state and local government web resources and services.